Time;durP1;ratioP1;P1;durP2;ratioP2;P2;SDS_P1;SDS_P2;PMS_P1;PMS_P2;Temp;Humidity;BMP_temperature;BMP_pressure;BME280_temperature;BME280_humidity;BME280_pressure;Samples;Min_cycle;Max_cycle;Signal;HPM_P1;HPM_P2
2023/08/08 00:01:59;;;;;;;;;;;16.30;78.10;;;;;;5069093;28;19948;-74
2023/08/08 00:04:24;;;;;;;;;;;16.30;78.00;;;;;;5067998;28;20015;-74
2023/08/08 00:06:50;;;;;;;;;;;16.30;78.00;;;;;;5068898;28;19913;-74
2023/08/08 00:09:16;;;;;;;;;;;16.40;78.10;;;;;;5070414;28;19917;-74
2023/08/08 00:11:42;;;;;;;;;;;16.40;78.10;;;;;;5070283;28;19919;-74
2023/08/08 00:14:07;;;;;;;;;;;16.40;78.00;;;;;;5070344;28;20007;-74
2023/08/08 00:16:33;;;;;;;;;;;16.40;78.00;;;;;;5070330;28;19940;-74
2023/08/08 00:18:58;;;;;;;;;;;16.50;78.00;;;;;;5070079;28;19913;-74
2023/08/08 00:21:24;;;;;;;;;;;16.50;78.10;;;;;;5068751;28;20569;-74
2023/08/08 00:23:49;;;;;;;;;;;16.50;78.60;;;;;;5068757;28;19912;-75
2023/08/08 00:26:15;;;;;;;;;;;16.50;78.10;;;;;;5068886;28;19913;-74
2023/08/08 00:28:40;;;;;;;;;;;16.60;78.10;;;;;;5069964;28;19963;-74
2023/08/08 00:31:06;;;;;;;;;;;16.50;78.10;;;;;;5070152;28;19916;-74
2023/08/08 00:33:32;;;;;;;;;;;16.60;78.10;;;;;;5068530;28;19977;-74
2023/08/08 00:35:57;;;;;;;;;;;16.60;78.00;;;;;;5068681;28;19944;-74
2023/08/08 00:38:23;;;;;;;;;;;16.60;78.00;;;;;;5070208;28;19913;-74
2023/08/08 00:40:48;;;;;;;;;;;16.60;78.00;;;;;;5068642;28;19916;-74
2023/08/08 00:43:14;;;;;;;;;;;16.60;78.10;;;;;;5068417;28;20402;-74
2023/08/08 00:45:41;;;;;;;;;;;16.60;78.10;;;;;;5069522;28;19909;-74
2023/08/08 00:48:07;;;;;;;;;;;16.60;78.20;;;;;;5069556;28;20045;-74
2023/08/08 00:50:33;;;;;;;;;;;16.60;78.30;;;;;;5085194;28;20433;-74
2023/08/08 00:52:58;;;;;;;;;;;16.60;78.30;;;;;;5069629;28;19922;-74
2023/08/08 00:55:24;;;;;;;;;;;16.70;78.30;;;;;;5069403;28;20291;-74
2023/08/08 00:57:50;;;;;;;;;;;16.70;78.20;;;;;;5067963;28;19915;-74
2023/08/08 01:00:16;;;;;;;;;;;16.70;78.10;;;;;;5069224;28;19919;-74
2023/08/08 01:02:41;;;;;;;;;;;16.70;78.20;;;;;;5067938;28;20292;-74
2023/08/08 01:05:07;;;;;;;;;;;16.70;78.10;;;;;;5069541;28;19912;-74
2023/08/08 01:07:33;;;;;;;;;;;16.60;78.30;;;;;;5067959;28;19999;-74
2023/08/08 01:10:28;;;;;;;;;;;16.60;78.40;;;;;;5067602;28;20407;-74
2023/08/08 01:12:59;;;;;;;;;;;16.60;78.40;;;;;;5074013;28;20364;-74
2023/08/08 01:15:25;;;;;;;;;;;16.60;78.30;;;;;;5069058;28;19912;-74
2023/08/08 01:17:51;;;;;;;;;;;16.70;78.30;;;;;;5084698;28;19920;-74
2023/08/08 01:20:18;;;;;;;;;;;16.70;78.30;;;;;;5069181;28;19921;-74
2023/08/08 01:23:06;;;;;;;;;;;16.70;78.20;;;;;;5084635;28;20280;-74
2023/08/08 01:25:32;;;;;;;;;;;16.70;78.20;;;;;;5077223;28;19912;-74
2023/08/08 01:27:58;;;;;;;;;;;16.70;78.20;;;;;;5084803;28;19919;-74
2023/08/08 01:30:23;;;;;;;;;;;16.70;78.20;;;;;;5067640;28;19971;-74
2023/08/08 01:32:49;;;;;;;;;;;16.70;78.10;;;;;;5067868;28;19975;-74
2023/08/08 01:35:14;;;;;;;;;;;16.70;78.20;;;;;;5084792;28;20019;-74
2023/08/08 01:37:43;;;;;;;;;;;16.60;78.30;;;;;;5084681;28;19959;-74
2023/08/08 01:40:10;;;;;;;;;;;16.60;78.40;;;;;;5069037;28;19948;-74
2023/08/08 01:42:36;;;;;;;;;;;16.60;78.40;;;;;;5069142;28;19913;-74
2023/08/08 01:45:02;;;;;;;;;;;16.70;78.50;;;;;;5067674;28;20335;-74
2023/08/08 01:47:28;;;;;;;;;;;16.70;78.30;;;;;;5067452;28;19913;-74
2023/08/08 01:49:53;;;;;;;;;;;16.70;78.40;;;;;;5068513;28;20311;-74
2023/08/08 01:52:19;;;;;;;;;;;16.60;78.40;;;;;;5069053;28;19960;-74
2023/08/08 01:54:44;;;;;;;;;;;16.60;78.60;;;;;;5084218;28;19913;-74
2023/08/08 01:57:10;;;;;;;;;;;16.60;78.70;;;;;;5067410;28;19919;-74
2023/08/08 01:59:35;;;;;;;;;;;16.60;78.70;;;;;;5067179;28;19916;-74
2023/08/08 02:02:01;;;;;;;;;;;16.60;78.60;;;;;;5068353;28;20289;-74
2023/08/08 02:04:27;;;;;;;;;;;16.60;78.50;;;;;;5067162;28;19938;-74
2023/08/08 02:06:52;;;;;;;;;;;16.70;78.50;;;;;;5067339;28;19923;-74
2023/08/08 02:09:18;;;;;;;;;;;16.70;78.50;;;;;;5068324;28;20019;-74
2023/08/08 02:11:43;;;;;;;;;;;16.70;78.40;;;;;;5068587;28;19974;-74
2023/08/08 02:14:09;;;;;;;;;;;16.70;78.30;;;;;;5084273;28;19912;-74
2023/08/08 02:16:34;;;;;;;;;;;16.70;78.40;;;;;;5066973;28;19917;-74
2023/08/08 02:19:00;;;;;;;;;;;16.70;78.50;;;;;;5083872;28;20292;-74
2023/08/08 02:21:26;;;;;;;;;;;16.70;78.50;;;;;;5067184;28;19913;-74
2023/08/08 02:23:51;;;;;;;;;;;16.60;78.60;;;;;;5068307;28;20329;-74
2023/08/08 02:26:17;;;;;;;;;;;16.60;78.80;;;;;;5068573;28;19944;-74
2023/08/08 02:28:43;;;;;;;;;;;16.60;78.80;;;;;;5068771;28;20404;-74
2023/08/08 02:31:08;;;;;;;;;;;16.60;78.80;;;;;;5072335;28;20309;-74
2023/08/08 02:33:34;;;;;;;;;;;16.60;78.70;;;;;;5072113;28;19916;-74
2023/08/08 02:36:00;;;;;;;;;;;16.70;78.70;;;;;;5070671;28;19917;-74
2023/08/08 02:38:25;;;;;;;;;;;16.70;78.70;;;;;;5071048;28;20363;-74
2023/08/08 02:40:51;;;;;;;;;;;16.70;78.70;;;;;;5070794;28;19940;-74
2023/08/08 02:43:16;;;;;;;;;;;16.60;78.60;;;;;;5071917;28;20007;-74
2023/08/08 02:45:42;;;;;;;;;;;16.60;78.70;;;;;;5072219;28;19919;-74
2023/08/08 02:48:07;;;;;;;;;;;16.60;78.70;;;;;;5087813;28;19913;-74
2023/08/08 02:50:33;;;;;;;;;;;16.60;78.80;;;;;;5071799;28;19916;-74
2023/08/08 02:52:59;;;;;;;;;;;16.50;78.80;;;;;;5072170;28;19908;-74
2023/08/08 02:55:24;;;;;;;;;;;16.50;78.90;;;;;;5087533;28;20360;-74
2023/08/08 02:57:50;;;;;;;;;;;16.50;78.90;;;;;;5071867;28;20279;-74
2023/08/08 03:00:15;;;;;;;;;;;16.60;78.80;;;;;;5071679;28;19913;-74
2023/08/08 03:02:42;;;;;;;;;;;16.60;78.70;;;;;;5071801;28;19925;-74
2023/08/08 03:05:08;;;;;;;;;;;16.50;78.60;;;;;;5071550;28;20015;-74
2023/08/08 03:07:34;;;;;;;;;;;16.40;78.60;;;;;;5071560;28;19966;-74
2023/08/08 03:10:00;;;;;;;;;;;16.30;78.70;;;;;;5071526;28;19920;-74
2023/08/08 03:12:25;;;;;;;;;;;16.20;78.90;;;;;;5070214;28;19950;-74
2023/08/08 03:14:51;;;;;;;;;;;16.20;78.90;;;;;;5069996;28;19916;-74
2023/08/08 03:17:16;;;;;;;;;;;16.20;78.90;;;;;;5071370;28;19961;-74
2023/08/08 03:19:42;;;;;;;;;;;16.30;78.80;;;;;;5086847;28;19939;-74
2023/08/08 03:22:07;;;;;;;;;;;16.30;78.70;;;;;;5069960;28;19912;-74
2023/08/08 03:24:33;;;;;;;;;;;16.20;78.70;;;;;;5069946;28;19912;-74
2023/08/08 03:26:58;;;;;;;;;;;16.20;78.80;;;;;;5071246;28;19913;-74
2023/08/08 03:29:24;;;;;;;;;;;16.10;79.00;;;;;;5070844;28;20032;-74
2023/08/08 03:31:49;;;;;;;;;;;16.10;79.00;;;;;;5069865;28;19913;-74
2023/08/08 03:34:15;;;;;;;;;;;16.10;78.90;;;;;;5086692;28;19967;-74
2023/08/08 03:36:41;;;;;;;;;;;16.20;78.80;;;;;;5069686;28;19919;-74
2023/08/08 03:39:08;;;;;;;;;;;16.20;78.70;;;;;;5069282;28;19908;-74
2023/08/08 03:41:33;;;;;;;;;;;16.20;78.70;;;;;;5086622;28;19912;-74
2023/08/08 03:43:59;;;;;;;;;;;16.30;78.60;;;;;;5069618;28;20174;-74
2023/08/08 03:46:24;;;;;;;;;;;16.20;78.60;;;;;;5069354;28;20007;-74
2023/08/08 03:48:50;;;;;;;;;;;16.20;78.60;;;;;;5070578;28;19913;-74
2023/08/08 03:51:16;;;;;;;;;;;16.20;78.60;;;;;;5070569;28;20473;-74
2023/08/08 03:53:41;;;;;;;;;;;16.10;78.50;;;;;;5069155;28;19912;-74
2023/08/08 03:56:07;;;;;;;;;;;16.00;78.40;;;;;;5070678;28;19913;-74
2023/08/08 03:58:32;;;;;;;;;;;16.00;78.50;;;;;;5070275;28;19917;-74
2023/08/08 04:00:58;;;;;;;;;;;15.90;78.50;;;;;;5070146;28;20257;-74
2023/08/08 04:03:24;;;;;;;;;;;15.80;78.80;;;;;;5085720;28;20031;-74
2023/08/08 04:05:49;;;;;;;;;;;15.70;78.30;;;;;;5070624;28;19908;-74
2023/08/08 04:08:15;;;;;;;;;;;15.60;78.30;;;;;;5068914;28;20386;-74
2023/08/08 04:10:41;;;;;;;;;;;15.60;78.30;;;;;;5070199;28;19969;-74
2023/08/08 04:13:07;;;;;;;;;;;15.50;78.50;;;;;;5068881;28;19912;-74
2023/08/08 04:15:32;;;;;;;;;;;15.40;78.50;;;;;;5070163;28;20383;-74
2023/08/08 04:17:58;;;;;;;;;;;15.30;78.50;;;;;;5085745;28;20386;-74
2023/08/08 04:20:23;;;;;;;;;;;15.30;78.50;;;;;;5068861;28;19912;-74
2023/08/08 04:22:49;;;;;;;;;;;15.20;78.50;;;;;;5068703;28;19955;-74
2023/08/08 04:25:15;;;;;;;;;;;15.10;78.40;;;;;;5070216;28;19939;-74
2023/08/08 04:27:40;;;;;;;;;;;15.10;78.60;;;;;;5070091;28;19955;-74
2023/08/08 04:30:06;;;;;;;;;;;15.00;78.60;;;;;;5071706;28;19974;-74
2023/08/08 04:32:32;;;;;;;;;;;15.00;78.60;;;;;;5085720;28;20339;-74
2023/08/08 04:34:57;;;;;;;;;;;14.90;78.60;;;;;;5068695;28;20322;-75
2023/08/08 04:37:23;;;;;;;;;;;14.90;78.60;;;;;;5085531;28;19939;-75
2023/08/08 04:39:48;;;;;;;;;;;14.80;78.50;;;;;;5068302;28;19912;-74
2023/08/08 04:42:14;;;;;;;;;;;14.80;78.50;;;;;;5069810;28;20387;-76
2023/08/08 04:44:39;;;;;;;;;;;14.70;78.50;;;;;;5068528;28;19954;-74
2023/08/08 04:47:05;;;;;;;;;;;14.60;78.50;;;;;;5068210;28;19916;-74
2023/08/08 04:49:31;;;;;;;;;;;14.60;78.50;;;;;;5067976;28;20365;-74
2023/08/08 04:51:56;;;;;;;;;;;14.50;78.40;;;;;;5069031;28;19912;-74
2023/08/08 04:54:22;;;;;;;;;;;14.50;78.50;;;;;;5068653;28;19999;-74
2023/08/08 04:56:47;;;;;;;;;;;14.40;78.50;;;;;;5068694;28;19912;-74
2023/08/08 04:59:13;;;;;;;;;;;14.30;78.50;;;;;;5068124;28;19963;-74
2023/08/08 05:01:38;;;;;;;;;;;14.30;78.60;;;;;;5069231;28;19920;-74
2023/08/08 05:04:04;;;;;;;;;;;14.30;78.60;;;;;;5069942;28;19999;-74
2023/08/08 05:06:30;;;;;;;;;;;14.30;78.60;;;;;;5069210;28;20311;-75
2023/08/08 05:08:56;;;;;;;;;;;14.30;78.60;;;;;;5067850;28;20292;-74
2023/08/08 05:11:22;;;;;;;;;;;14.20;79.00;;;;;;5084661;28;19920;-74
2023/08/08 05:13:48;;;;;;;;;;;14.20;78.50;;;;;;5068905;28;19909;-74
2023/08/08 05:16:13;;;;;;;;;;;14.20;78.50;;;;;;5069171;28;19915;-74
2023/08/08 05:18:39;;;;;;;;;;;14.20;78.40;;;;;;5068849;28;19963;-74
2023/08/08 05:21:04;;;;;;;;;;;14.10;78.50;;;;;;5069259;28;19962;-74
2023/08/08 05:23:30;;;;;;;;;;;14.10;78.50;;;;;;5067579;28;19919;-75
2023/08/08 05:25:55;;;;;;;;;;;14.00;78.50;;;;;;5067789;28;19983;-74
2023/08/08 05:28:21;;;;;;;;;;;14.10;78.60;;;;;;5067629;28;20376;-73
2023/08/08 05:30:47;;;;;;;;;;;14.10;78.60;;;;;;5068787;28;19917;-74
2023/08/08 05:33:13;;;;;;;;;;;14.10;78.60;;;;;;5084382;28;19920;-74
2023/08/08 05:35:38;;;;;;;;;;;14.10;78.50;;;;;;5069010;28;19912;-74
2023/08/08 05:38:04;;;;;;;;;;;14.20;78.50;;;;;;5068687;28;19990;-74
2023/08/08 05:40:29;;;;;;;;;;;14.20;78.50;;;;;;5068812;28;19912;-74
2023/08/08 05:42:55;;;;;;;;;;;14.20;78.50;;;;;;5067453;28;19923;-75
2023/08/08 05:45:20;;;;;;;;;;;14.20;78.50;;;;;;5084640;28;19912;-74
2023/08/08 05:47:46;;;;;;;;;;;14.30;78.60;;;;;;5067508;28;19935;-74
2023/08/08 05:50:12;;;;;;;;;;;14.40;78.60;;;;;;5084650;28;19921;-74
2023/08/08 05:52:37;;;;;;;;;;;14.40;78.40;;;;;;5069077;28;20011;-74
2023/08/08 05:55:03;;;;;;;;;;;14.50;78.50;;;;;;5068946;28;20364;-74
2023/08/08 05:57:28;;;;;;;;;;;14.50;78.50;;;;;;5084439;28;19913;-73
2023/08/08 05:59:54;;;;;;;;;;;14.50;78.40;;;;;;5068521;28;20015;-73
2023/08/08 06:02:20;;;;;;;;;;;14.50;78.40;;;;;;5069651;28;19928;-77
2023/08/08 06:04:45;;;;;;;;;;;14.50;78.50;;;;;;5073026;28;19913;-74
2023/08/08 06:07:11;;;;;;;;;;;14.60;78.60;;;;;;5072681;28;19930;-75
2023/08/08 06:09:37;;;;;;;;;;;14.60;78.50;;;;;;5073346;28;20372;-74
2023/08/08 06:12:03;;;;;;;;;;;14.70;78.50;;;;;;5071981;28;19909;-74
2023/08/08 06:14:30;;;;;;;;;;;14.80;78.40;;;;;;5071477;28;19908;-74
2023/08/08 06:16:55;;;;;;;;;;;14.80;78.30;;;;;;5071023;28;20058;-74
2023/08/08 06:19:21;;;;;;;;;;;14.90;78.40;;;;;;5072465;28;19999;-75
2023/08/08 06:21:46;;;;;;;;;;;15.00;78.50;;;;;;5087892;28;20288;-75
2023/08/08 06:24:12;;;;;;;;;;;15.10;78.40;;;;;;5071150;28;19923;-76
2023/08/08 06:26:38;;;;;;;;;;;15.20;78.40;;;;;;5072181;28;20303;-75
2023/08/08 06:29:03;;;;;;;;;;;15.30;78.40;;;;;;5087479;28;19912;-75
2023/08/08 06:31:29;;;;;;;;;;;15.40;78.40;;;;;;5071654;28;19952;-75
2023/08/08 06:33:55;;;;;;;;;;;15.60;78.80;;;;;;5070646;28;20364;-75
2023/08/08 06:36:20;;;;;;;;;;;16.10;79.50;;;;;;5071019;28;20291;-75
2023/08/08 06:38:46;;;;;;;;;;;16.70;78.80;;;;;;5070624;28;19913;-75
2023/08/08 06:41:11;;;;;;;;;;;17.10;78.30;;;;;;5072106;28;20304;-75
2023/08/08 06:43:37;;;;;;;;;;;17.30;78.10;;;;;;5087521;28;19918;-75
2023/08/08 06:46:03;;;;;;;;;;;17.50;78.30;;;;;;5072231;28;19919;-75
2023/08/08 06:48:28;;;;;;;;;;;17.60;78.30;;;;;;5070876;28;20279;-75
2023/08/08 06:50:54;;;;;;;;;;;17.70;78.40;;;;;;5072046;28;19917;-75
2023/08/08 06:53:20;;;;;;;;;;;17.80;78.30;;;;;;5072152;28;19969;-75
2023/08/08 06:55:45;;;;;;;;;;;17.70;78.20;;;;;;5071919;28;20488;-75
2023/08/08 06:58:11;;;;;;;;;;;17.60;78.20;;;;;;5087271;28;19955;-75
2023/08/08 07:00:36;;;;;;;;;;;17.50;78.40;;;;;;5071537;28;19920;-75
2023/08/08 07:03:02;;;;;;;;;;;17.40;78.70;;;;;;5071872;28;20437;-75
2023/08/08 07:05:28;;;;;;;;;;;17.40;78.90;;;;;;5071713;28;19944;-75
2023/08/08 07:07:54;;;;;;;;;;;17.50;79.10;;;;;;5070261;28;19913;-75
2023/08/08 07:10:20;;;;;;;;;;;17.80;79.30;;;;;;5071781;28;19916;-74
2023/08/08 07:12:45;;;;;;;;;;;18.10;79.40;;;;;;5071982;28;20315;-75
2023/08/08 07:15:11;;;;;;;;;;;18.50;79.30;;;;;;5086778;28;20003;-75
2023/08/08 07:17:37;;;;;;;;;;;18.80;79.10;;;;;;5071631;28;19917;-76
2023/08/08 07:20:03;;;;;;;;;;;19.10;79.10;;;;;;5070483;28;19954;-75
2023/08/08 07:22:28;;;;;;;;;;;19.40;79.00;;;;;;5070604;28;20000;-75
2023/08/08 07:24:54;;;;;;;;;;;19.70;78.80;;;;;;5070009;28;20326;-75
2023/08/08 07:27:19;;;;;;;;;;;20.00;78.70;;;;;;5087316;28;20015;-75
2023/08/08 07:29:45;;;;;;;;;;;20.10;78.80;;;;;;5071208;28;19916;-75
2023/08/08 07:32:10;;;;;;;;;;;20.40;78.70;;;;;;5071129;28;19909;-75
2023/08/08 07:34:36;;;;;;;;;;;20.70;78.90;;;;;;5069856;28;20436;-75
2023/08/08 07:37:02;;;;;;;;;;;21.00;78.70;;;;;;5069761;28;19916;-75
2023/08/08 07:39:28;;;;;;;;;;;21.40;78.70;;;;;;5070466;28;19908;-75
2023/08/08 07:41:54;;;;;;;;;;;21.90;79.10;;;;;;5085631;28;20307;-73
2023/08/08 07:44:19;;;;;;;;;;;22.90;79.20;;;;;;5071813;28;19915;-75
2023/08/08 07:46:45;;;;;;;;;;;23.70;78.50;;;;;;5086377;28;19923;-76
2023/08/08 07:49:11;;;;;;;;;;;24.20;77.90;;;;;;5070817;28;20424;-75
2023/08/08 07:51:36;;;;;;;;;;;24.30;77.60;;;;;;5071055;28;20275;-76
2023/08/08 07:54:02;;;;;;;;;;;24.30;77.50;;;;;;5070394;28;19924;-76
2023/08/08 07:56:28;;;;;;;;;;;24.20;77.70;;;;;;5068713;28;19925;-76
2023/08/08 07:58:54;;;;;;;;;;;24.40;78.20;;;;;;5070280;28;20290;-75
2023/08/08 08:01:19;;;;;;;;;;;24.70;78.00;;;;;;5070283;28;20000;-76
2023/08/08 08:03:45;;;;;;;;;;;24.80;77.80;;;;;;5069073;28;19983;-75
2023/08/08 08:06:11;;;;;;;;;;;24.90;77.80;;;;;;5069854;28;20287;-75
2023/08/08 08:08:37;;;;;;;;;;;24.90;78.00;;;;;;5070375;28;20467;-75
2023/08/08 08:11:03;;;;;;;;;;;25.40;78.50;;;;;;5068218;28;19912;-75
2023/08/08 08:13:28;;;;;;;;;;;25.90;78.10;;;;;;5069803;28;19947;-76
2023/08/08 08:15:54;;;;;;;;;;;26.10;77.80;;;;;;5069982;28;20359;-76
2023/08/08 08:18:20;;;;;;;;;;;25.90;77.40;;;;;;5071084;28;20315;-75
2023/08/08 08:20:46;;;;;;;;;;;25.60;77.50;;;;;;5069693;28;19908;-75
2023/08/08 08:23:11;;;;;;;;;;;25.50;78.10;;;;;;5086033;28;19916;-75
2023/08/08 08:25:37;;;;;;;;;;;25.40;78.20;;;;;;5067844;28;19981;-76
2023/08/08 08:28:03;;;;;;;;;;;25.40;78.30;;;;;;5070457;28;19913;-76
2023/08/08 08:30:28;;;;;;;;;;;25.30;78.70;;;;;;5086219;28;19986;-75
2023/08/08 08:32:54;;;;;;;;;;;25.60;79.30;;;;;;5070913;28;20003;-75
2023/08/08 08:35:20;;;;;;;;;;;25.80;79.20;;;;;;5086201;28;19969;-75
2023/08/08 08:37:46;;;;;;;;;;;25.70;79.40;;;;;;5070297;28;20373;-76
2023/08/08 08:40:12;;;;;;;;;;;25.60;79.80;;;;;;5081606;28;20026;-76
2023/08/08 08:42:38;;;;;;;;;;;25.50;79.70;;;;;;5091173;28;19954;-75
2023/08/08 08:45:05;;;;;;;;;;;25.40;79.70;;;;;;5090510;28;20008;-76
2023/08/08 08:47:31;;;;;;;;;;;25.40;79.90;;;;;;5091010;28;20264;-75
2023/08/08 08:49:57;;;;;;;;;;;25.90;80.10;;;;;;5090334;28;20533;-75
2023/08/08 08:52:23;;;;;;;;;;;26.00;79.20;;;;;;5090643;28;19912;-76
2023/08/08 08:54:52;;;;;;;;;;;25.80;78.90;;;;;;5090668;28;19943;-75
2023/08/08 08:57:19;;;;;;;;;;;25.70;79.00;;;;;;5085180;28;20289;-75
2023/08/08 08:59:44;;;;;;;;;;;25.50;79.00;;;;;;5069200;28;19916;-75
2023/08/08 09:02:10;;;;;;;;;;;25.30;78.90;;;;;;5088564;28;20300;-75
2023/08/08 09:04:36;;;;;;;;;;;24.90;79.20;;;;;;5090859;28;19912;-75
2023/08/08 09:07:02;;;;;;;;;;;24.80;79.70;;;;;;5089055;28;20279;-75
2023/08/08 09:09:31;;;;;;;;;;;24.60;79.50;;;;;;5090610;28;19908;-75
2023/08/08 09:11:56;;;;;;;;;;;24.30;79.70;;;;;;5089719;28;19908;-75
2023/08/08 09:14:23;;;;;;;;;;;24.20;80.00;;;;;;5088648;28;19923;-75
2023/08/08 09:16:49;;;;;;;;;;;24.10;80.20;;;;;;5072772;28;19919;-75
2023/08/08 09:19:15;;;;;;;;;;;24.10;80.70;;;;;;5089953;28;20007;-75
2023/08/08 09:21:41;;;;;;;;;;;24.20;80.10;;;;;;5071817;28;20420;-75
2023/08/08 09:24:06;;;;;;;;;;;24.30;79.90;;;;;;5090463;28;19970;-75
2023/08/08 09:26:32;;;;;;;;;;;24.30;79.50;;;;;;5089412;28;19922;-75
2023/08/08 09:28:58;;;;;;;;;;;24.20;79.50;;;;;;5088858;28;20245;-75
2023/08/08 09:31:27;;;;;;;;;;;24.20;79.40;;;;;;5088734;28;19916;-75
2023/08/08 09:33:59;;;;;;;;;;;23.90;79.20;;;;;;5089969;28;20360;-76
2023/08/08 09:36:25;;;;;;;;;;;23.80;79.60;;;;;;5090147;28;20002;-75
2023/08/08 09:38:51;;;;;;;;;;;23.60;79.70;;;;;;5088364;28;19908;-73
2023/08/08 09:41:17;;;;;;;;;;;23.50;79.60;;;;;;5081389;28;19913;-75
2023/08/08 09:43:45;;;;;;;;;;;23.40;79.70;;;;;;5084791;28;19976;-75
2023/08/08 09:46:11;;;;;;;;;;;23.30;79.80;;;;;;5068123;28;19960;-75
2023/08/08 09:48:38;;;;;;;;;;;23.30;79.70;;;;;;5069505;28;19921;-76
2023/08/08 09:51:04;;;;;;;;;;;23.20;79.70;;;;;;5069176;28;19916;-75
2023/08/08 09:53:30;;;;;;;;;;;23.20;79.50;;;;;;5085084;28;19951;-76
2023/08/08 09:55:56;;;;;;;;;;;23.10;79.40;;;;;;5098941;28;19959;-76
2023/08/08 09:58:22;;;;;;;;;;;22.90;79.70;;;;;;5089279;28;19919;-75
2023/08/08 10:00:50;;;;;;;;;;;22.90;79.90;;;;;;5088286;28;19920;-77
2023/08/08 10:03:16;;;;;;;;;;;23.00;80.10;;;;;;5088477;28;19965;-76
2023/08/08 10:05:43;;;;;;;;;;;23.10;80.10;;;;;;5089184;28;19912;-75
2023/08/08 10:08:08;;;;;;;;;;;23.20;79.90;;;;;;5088761;28;19933;-74
2023/08/08 10:10:34;;;;;;;;;;;23.40;79.90;;;;;;5087657;28;19916;-78
2023/08/08 10:13:00;;;;;;;;;;;23.40;79.80;;;;;;5088696;28;19909;-74
2023/08/08 10:15:27;;;;;;;;;;;23.50;79.80;;;;;;5088707;28;20249;-76
2023/08/08 10:17:56;;;;;;;;;;;23.70;79.80;;;;;;5088664;28;19958;-75
2023/08/08 10:20:24;;;;;;;;;;;23.80;79.90;;;;;;5088791;28;19991;-74
2023/08/08 10:22:51;;;;;;;;;;;23.90;79.60;;;;;;5089116;28;19935;-75
2023/08/08 10:25:18;;;;;;;;;;;24.10;79.40;;;;;;5089084;28;19927;-73
2023/08/08 10:27:44;;;;;;;;;;;24.20;79.30;;;;;;5089524;28;19934;-75
2023/08/08 10:30:10;;;;;;;;;;;24.20;79.40;;;;;;5089342;28;20337;-74
2023/08/08 10:32:40;;;;;;;;;;;24.20;79.40;;;;;;5087062;28;20303;-74
2023/08/08 10:35:06;;;;;;;;;;;24.20;79.40;;;;;;5088940;28;20267;-77
2023/08/08 10:37:31;;;;;;;;;;;24.20;79.20;;;;;;5088716;28;20408;-76
2023/08/08 10:39:58;;;;;;;;;;;24.10;79.10;;;;;;5087207;28;19916;-75
2023/08/08 10:42:25;;;;;;;;;;;23.90;79.10;;;;;;5089387;28;19924;-76
2023/08/08 10:44:52;;;;;;;;;;;23.70;79.00;;;;;;5087418;28;20001;-74
2023/08/08 10:47:21;;;;;;;;;;;23.50;79.00;;;;;;5088694;28;19920;-75
2023/08/08 10:49:55;;;;;;;;;;;23.30;79.20;;;;;;5090961;28;19982;-75
2023/08/08 10:52:21;;;;;;;;;;;23.10;79.20;;;;;;5092746;28;19908;-76
2023/08/08 10:54:52;;;;;;;;;;;22.80;79.30;;;;;;5074446;28;20261;-75
2023/08/08 10:57:19;;;;;;;;;;;22.50;79.50;;;;;;5091845;28;19974;-74
2023/08/08 10:59:44;;;;;;;;;;;22.10;79.70;;;;;;5091866;28;19935;-76
2023/08/08 11:02:10;;;;;;;;;;;21.80;80.00;;;;;;5088941;28;20356;-75
2023/08/08 11:04:36;;;;;;;;;;;21.70;80.30;;;;;;5093603;28;20405;-75
2023/08/08 11:07:01;;;;;;;;;;;21.60;80.50;;;;;;5092049;28;19938;-75
2023/08/08 11:09:27;;;;;;;;;;;21.60;80.60;;;;;;5092837;28;19913;-75
2023/08/08 11:11:53;;;;;;;;;;;21.70;80.50;;;;;;5091899;28;19931;-76
2023/08/08 11:14:20;;;;;;;;;;;21.80;80.50;;;;;;5089794;28;19912;-75
2023/08/08 11:16:47;;;;;;;;;;;21.80;80.40;;;;;;5088723;28;19908;-74
2023/08/08 11:19:13;;;;;;;;;;;21.80;80.30;;;;;;5092408;28;19908;-75
2023/08/08 11:21:40;;;;;;;;;;;21.90;80.20;;;;;;5091569;28;19969;-75
2023/08/08 11:24:06;;;;;;;;;;;21.80;80.20;;;;;;5091896;28;19915;-75
2023/08/08 11:26:36;;;;;;;;;;;21.80;80.30;;;;;;5070834;28;19920;-75
2023/08/08 11:29:02;;;;;;;;;;;21.70;80.40;;;;;;5071698;28;19961;-75
2023/08/08 11:31:28;;;;;;;;;;;21.80;80.40;;;;;;5070272;28;19913;-74
2023/08/08 11:33:54;;;;;;;;;;;21.80;80.20;;;;;;5070789;28;19915;-74
2023/08/08 11:36:20;;;;;;;;;;;21.80;80.20;;;;;;5069603;28;19916;-74
2023/08/08 11:38:46;;;;;;;;;;;21.60;80.10;;;;;;5069160;28;19920;-74
2023/08/08 11:41:16;;;;;;;;;;;21.60;80.20;;;;;;5070815;28;20003;-75
2023/08/08 11:43:41;;;;;;;;;;;21.50;80.20;;;;;;5069116;28;19999;-74
2023/08/08 11:46:13;;;;;;;;;;;21.50;80.30;;;;;;5070751;28;19947;-72
2023/08/08 11:48:39;;;;;;;;;;;21.50;80.00;;;;;;5088056;28;19908;-76
2023/08/08 11:51:05;;;;;;;;;;;21.40;80.00;;;;;;5090962;28;19964;-75
2023/08/08 11:53:31;;;;;;;;;;;21.30;79.90;;;;;;5091425;28;19912;-76
2023/08/08 11:55:58;;;;;;;;;;;21.20;79.90;;;;;;5090882;28;19912;-77
2023/08/08 11:58:24;;;;;;;;;;;21.10;80.10;;;;;;5092341;28;19909;-75
2023/08/08 12:00:50;;;;;;;;;;;21.20;80.10;;;;;;5089221;28;20305;-72
2023/08/08 12:03:18;;;;;;;;;;;21.10;80.10;;;;;;5091341;28;19974;-74
2023/08/08 12:05:45;;;;;;;;;;;21.10;80.10;;;;;;5073509;28;19912;-74
2023/08/08 12:08:10;;;;;;;;;;;21.20;80.30;;;;;;5091070;28;19909;-73
2023/08/08 12:10:36;;;;;;;;;;;21.30;80.10;;;;;;5091115;28;20346;-74
2023/08/08 12:13:01;;;;;;;;;;;21.40;80.30;;;;;;5088735;28;19949;-74
2023/08/08 12:15:34;;;;;;;;;;;21.60;80.50;;;;;;5088868;28;20006;-74
2023/08/08 12:18:01;;;;;;;;;;;21.80;80.50;;;;;;5089118;28;19912;-75
2023/08/08 12:20:30;;;;;;;;;;;22.00;80.40;;;;;;5077236;28;19916;-75
2023/08/08 12:22:57;;;;;;;;;;;22.30;80.40;;;;;;5088150;28;20260;-75
2023/08/08 12:25:22;;;;;;;;;;;22.70;80.40;;;;;;5089758;28;19913;-75
2023/08/08 12:27:48;;;;;;;;;;;23.20;80.60;;;;;;5091271;28;19927;-76
2023/08/08 12:30:14;;;;;;;;;;;23.70;80.50;;;;;;5091062;28;20373;-74
2023/08/08 12:32:39;;;;;;;;;;;24.30;80.40;;;;;;5090572;28;20402;-74
2023/08/08 12:35:06;;;;;;;;;;;24.70;80.40;;;;;;5090800;28;19912;-74
2023/08/08 12:37:32;;;;;;;;;;;25.10;80.30;;;;;;5089151;28;19912;-74
2023/08/08 12:39:57;;;;;;;;;;;25.40;80.20;;;;;;5089077;28;20026;-74
2023/08/08 12:42:23;;;;;;;;;;;25.90;80.70;;;;;;5088634;28;19912;-74
2023/08/08 12:44:51;;;;;;;;;;;26.70;81.30;;;;;;5090543;28;19908;-75
2023/08/08 12:47:20;;;;;;;;;;;27.80;81.60;;;;;;5089215;28;19932;-74
2023/08/08 12:49:47;;;;;;;;;;;28.50;81.40;;;;;;5088727;28;20552;-75
2023/08/08 12:52:13;;;;;;;;;;;28.90;81.60;;;;;;5089049;28;19965;-74
2023/08/08 12:54:38;;;;;;;;;;;29.30;82.20;;;;;;5090429;28;19920;-74
2023/08/08 12:57:04;;;;;;;;;;;29.30;81.80;;;;;;5088886;28;19912;-74
2023/08/08 12:59:29;;;;;;;;;;;29.00;81.50;;;;;;5088611;28;19912;-74
2023/08/08 13:01:55;;;;;;;;;;;28.70;81.10;;;;;;5089890;28;19939;-74
2023/08/08 13:04:21;;;;;;;;;;;28.40;80.90;;;;;;5090132;28;19912;-73
2023/08/08 13:06:49;;;;;;;;;;;28.10;81.10;;;;;;5090204;28;20277;-74
2023/08/08 13:09:15;;;;;;;;;;;28.00;81.80;;;;;;5090256;28;20336;-74
2023/08/08 13:11:41;;;;;;;;;;;28.00;82.00;;;;;;5087697;28;20022;-75
2023/08/08 13:14:07;;;;;;;;;;;28.30;82.50;;;;;;5088666;28;19999;-74
2023/08/08 13:16:32;;;;;;;;;;;28.50;81.80;;;;;;5088372;28;19999;-74
2023/08/08 13:18:58;;;;;;;;;;;28.30;80.90;;;;;;5089755;28;19931;-73
2023/08/08 13:21:23;;;;;;;;;;;27.80;80.90;;;;;;5088719;28;20390;-73
2023/08/08 13:23:49;;;;;;;;;;;27.40;80.90;;;;;;5088027;28;19912;-72
2023/08/08 13:26:15;;;;;;;;;;;27.10;80.90;;;;;;5088432;28;19916;-75
2023/08/08 13:28:40;;;;;;;;;;;26.90;80.70;;;;;;5089210;28;19935;-72
2023/08/08 13:31:07;;;;;;;;;;;26.50;80.70;;;;;;5088792;28;19917;-73
2023/08/08 13:33:34;;;;;;;;;;;26.20;81.00;;;;;;5077732;28;20711;-73
2023/08/08 13:35:59;;;;;;;;;;;25.90;81.00;;;;;;5068953;28;19992;-73
2023/08/08 13:38:25;;;;;;;;;;;25.80;81.10;;;;;;5088686;28;20439;-73
2023/08/08 13:40:51;;;;;;;;;;;25.60;81.00;;;;;;5087408;28;19912;-74
2023/08/08 13:43:16;;;;;;;;;;;25.30;81.10;;;;;;5088525;28;20372;-74
2023/08/08 13:45:42;;;;;;;;;;;25.10;81.60;;;;;;5088501;28;19916;-75
2023/08/08 13:48:07;;;;;;;;;;;25.10;81.50;;;;;;5088497;28;19912;-76
2023/08/08 13:50:33;;;;;;;;;;;25.10;81.00;;;;;;5088625;28;20457;-76
2023/08/08 13:52:58;;;;;;;;;;;25.00;80.90;;;;;;5089075;28;19918;-76
2023/08/08 13:55:25;;;;;;;;;;;24.80;81.00;;;;;;5088669;28;19916;-77
2023/08/08 13:57:51;;;;;;;;;;;24.70;81.20;;;;;;5088852;28;19965;-76
2023/08/08 14:00:16;;;;;;;;;;;24.60;81.30;;;;;;5088964;28;19928;-75
2023/08/08 14:02:43;;;;;;;;;;;24.70;81.40;;;;;;5088718;28;19935;-76
2023/08/08 14:05:08;;;;;;;;;;;24.80;81.40;;;;;;5087047;28;19934;-75
2023/08/08 14:07:34;;;;;;;;;;;25.10;81.10;;;;;;5087801;28;20455;-76
2023/08/08 14:10:01;;;;;;;;;;;25.20;81.00;;;;;;5087088;28;19920;-76